Time;durP1;ratioP1;P1;durP2;ratioP2;P2;SDS_P1;SDS_P2;PMS_P1;PMS_P2;Temp;Humidity;BMP_temperature;BMP_pressure;BME280_temperature;BME280_humidity;BME280_pressure;Samples;Min_cycle;Max_cycle;Signal;HPM_P1;HPM_P2
2023/04/01 00:00:08;;;;;;;2.17;1.90;;;;;;;;;;2058580;28;20507;-78
2023/04/01 00:01:27;;;;;;;2.13;1.85;;;;;;;;;;2056063;28;20040;-79
2023/04/01 00:02:46;;;;;;;3.78;1.88;;;;;;;;;;2055843;28;20030;-79
2023/04/01 00:04:05;;;;;;;3.22;1.70;;;;;;;;;;2052816;28;20027;-78
2023/04/01 00:05:26;;;;;;;1.98;1.70;;;;;;;;;;2054086;28;20052;-79
2023/04/01 00:06:47;;;;;;;1.52;1.30;;;;;;;;;;2054687;28;20404;-79
2023/04/01 00:08:06;;;;;;;3.08;1.98;;;;;;;;;;2054934;28;20026;-79
2023/04/01 00:09:25;;;;;;;2.60;1.88;;;;;;;;;;2064062;28;20026;-79
2023/04/01 00:10:45;;;;;;;2.63;1.92;;;;;;;;;;2057573;28;20492;-80
2023/04/01 00:12:04;;;;;;;2.85;2.05;;;;;;;;;;2058010;28;20109;-79
2023/04/01 00:13:25;;;;;;;5.43;1.70;;;;;;;;;;2059573;28;20459;-79
2023/04/01 00:14:44;;;;;;;2.38;2.10;;;;;;;;;;2055369;28;20057;-80
2023/04/01 00:16:04;;;;;;;3.78;2.20;;;;;;;;;;2055640;28;20027;-80
2023/04/01 00:17:22;;;;;;;2.75;1.90;;;;;;;;;;2058154;28;20022;-81
2023/04/01 00:18:41;;;;;;;3.00;1.85;;;;;;;;;;2058249;28;20031;-81
2023/04/01 00:20:00;;;;;;;3.28;2.25;;;;;;;;;;2055867;28;20057;-79
2023/04/01 00:21:22;;;;;;;2.03;1.80;;;;;;;;;;2063653;28;20511;-79
2023/04/01 00:22:41;;;;;;;3.50;1.90;;;;;;;;;;2058635;28;20030;-81
2023/04/01 00:24:00;;;;;;;2.53;2.33;;;;;;;;;;2059942;28;20403;-79
2023/04/01 00:25:20;;;;;;;2.20;2.00;;;;;;;;;;2072573;28;20673;-79
2023/04/01 00:26:42;;;;;;;3.28;2.10;;;;;;;;;;2064338;28;20047;-79
2023/04/01 00:28:00;;;;;;;4.05;2.13;;;;;;;;;;2057503;28;20508;-80
2023/04/01 00:29:19;;;;;;;4.65;1.92;;;;;;;;;;2054654;28;20034;-79
2023/04/01 00:30:38;;;;;;;3.45;2.20;;;;;;;;;;2059627;28;20098;-78
2023/04/01 00:31:57;;;;;;;2.35;1.92;;;;;;;;;;2056874;28;20571;-78
2023/04/01 00:33:17;;;;;;;5.78;1.90;;;;;;;;;;2054717;28;20419;-78
2023/04/01 00:34:36;;;;;;;2.30;2.10;;;;;;;;;;2053493;28;20480;-78
2023/04/01 00:35:56;;;;;;;2.78;1.80;;;;;;;;;;2055049;28;20069;-78
2023/04/01 00:37:15;;;;;;;6.53;1.90;;;;;;;;;;2059113;28;20034;-79
2023/04/01 00:38:34;;;;;;;3.80;2.08;;;;;;;;;;2060350;28;20035;-79
2023/04/01 00:39:53;;;;;;;3.15;1.95;;;;;;;;;;2058562;28;20098;-79
2023/04/01 00:41:15;;;;;;;2.38;1.83;;;;;;;;;;2057841;28;20026;-78
2023/04/01 00:42:34;;;;;;;2.05;1.58;;;;;;;;;;2055319;28;20031;-79
2023/04/01 00:43:52;;;;;;;3.53;1.85;;;;;;;;;;2054086;28;20027;-79
2023/04/01 00:45:27;;;;;;;3.97;1.90;;;;;;;;;;2059118;28;20496;-79
2023/04/01 00:46:46;;;;;;;2.35;1.92;;;;;;;;;;2059607;28;20030;-80
2023/04/01 00:48:25;;;;;;;3.50;2.42;;;;;;;;;;2058852;28;20066;-78
2023/04/01 00:49:46;;;;;;;2.85;1.90;;;;;;;;;;2059138;28;20027;-79
2023/04/01 00:51:13;;;;;;;3.15;1.73;;;;;;;;;;2057889;28;20026;-79
2023/04/01 00:52:34;;;;;;;5.68;1.88;;;;;;;;;;2056111;28;20211;-78
2023/04/01 00:53:54;;;;;;;3.63;1.80;;;;;;;;;;2054009;28;20053;-80
2023/04/01 00:55:14;;;;;;;4.55;1.98;;;;;;;;;;2057161;28;20019;-79
2023/04/01 00:56:35;;;;;;;2.60;2.00;;;;;;;;;;2068888;28;20025;-78
2023/04/01 00:57:56;;;;;;;1.85;1.75;;;;;;;;;;2061436;28;20062;-79
2023/04/01 00:59:26;;;;;;;2.25;1.70;;;;;;;;;;2054734;28;20026;-79
2023/04/01 01:00:46;;;;;;;2.47;1.67;;;;;;;;;;2060169;28;20035;-80
2023/04/01 01:02:07;;;;;;;1.75;1.65;;;;;;;;;;2061837;28;20038;-79
2023/04/01 01:03:26;;;;;;;3.20;1.83;;;;;;;;;;2058001;28;20030;-79
2023/04/01 01:04:45;;;;;;;2.72;1.83;;;;;;;;;;2058923;28;20018;-80
2023/04/01 01:06:10;;;;;;;3.60;1.90;;;;;;;;;;2060435;28;20142;-79
2023/04/01 01:07:44;;;;;;;2.38;2.15;;;;;;;;;;2054372;28;20027;-79
2023/04/01 01:09:10;;;;;;;3.03;1.92;;;;;;;;;;2060881;28;20034;-79
2023/04/01 01:10:29;;;;;;;3.47;2.63;;;;;;;;;;2061084;28;20034;-81
2023/04/01 01:11:47;;;;;;;2.50;1.90;;;;;;;;;;2067807;28;20071;-82
2023/04/01 01:13:22;;;;;;;2.25;2.00;;;;;;;;;;2068370;28;20030;-80
2023/04/01 01:14:41;;;;;;;2.38;1.70;;;;;;;;;;2064827;28;20031;-81
2023/04/01 01:16:04;;;;;;;4.85;2.20;;;;;;;;;;2060058;28;20019;-80
2023/04/01 01:17:23;;;;;;;;;;;;;;;;;;2063551;28;20038;-81
2023/04/01 01:19:14;;;;;;;2.08;1.95;;;;;;;;;;2060879;28;19909;-81
2023/04/01 01:20:49;;;;;;;7.40;2.00;;;;;;;;;;2060297;28;20393;-79
2023/04/01 01:22:14;;;;;;;2.20;1.85;;;;;;;;;;2062443;28;20027;-78
2023/04/01 01:23:33;;;;;;;2.15;1.73;;;;;;;;;;2056270;28;20035;-79
2023/04/01 01:24:52;;;;;;;2.67;1.95;;;;;;;;;;2054822;28;20070;-81
2023/04/01 01:26:26;;;;;;;2.20;2.00;;;;;;;;;;2063487;28;20038;-79
2023/04/01 01:27:50;;;;;;;2.97;1.70;;;;;;;;;;2064794;28;20109;-80
2023/04/01 01:29:12;;;;;;;2.17;1.80;;;;;;;;;;2055014;28;20030;-78
2023/04/01 01:30:51;;;;;;;2.42;2.25;;;;;;;;;;2058764;28;20035;-80
2023/04/01 01:32:10;;;;;;;1.98;1.80;;;;;;;;;;2055643;28;20030;-79
2023/04/01 01:33:35;;;;;;;3.03;2.03;;;;;;;;;;2060963;28;20034;-80
2023/04/01 01:35:13;;;;;;;2.47;2.28;;;;;;;;;;2054095;28;20463;-81
2023/04/01 01:36:36;;;;;;;2.25;2.00;;;;;;;;;;2062277;28;20874;-82
2023/04/01 01:38:22;;;;;;;2.33;2.10;;;;;;;;;;2052018;28;20038;-83
2023/04/01 01:39:42;;;;;;;2.17;1.98;;;;;;;;;;2054595;28;20488;-79
2023/04/01 01:41:02;;;;;;;2.75;2.20;;;;;;;;;;2069975;28;20041;-80
2023/04/01 01:42:22;;;;;;;2.47;1.92;;;;;;;;;;2055557;28;20115;-79
2023/04/01 01:43:43;;;;;;;2.35;1.67;;;;;;;;;;2056078;28;20109;-79
2023/04/01 01:45:03;;;;;;;2.10;1.77;;;;;;;;;;2049672;28;20046;-81
2023/04/01 01:46:24;;;;;;;3.20;2.35;;;;;;;;;;2060876;28;20109;-79
2023/04/01 01:47:43;;;;;;;2.22;1.80;;;;;;;;;;2061297;28;20042;-79
2023/04/01 01:49:03;;;;;;;5.47;1.95;;;;;;;;;;2057775;28;20523;-80
2023/04/01 01:50:23;;;;;;;2.35;2.15;;;;;;;;;;2056326;28;20113;-80
2023/04/01 01:51:43;;;;;;;2.38;1.98;;;;;;;;;;2056465;28;20531;-80
2023/04/01 01:53:05;;;;;;;1.90;1.80;;;;;;;;;;2055859;28;20035;-80
2023/04/01 01:54:25;;;;;;;1.67;1.58;;;;;;;;;;2070903;28;20029;-79
2023/04/01 01:55:46;;;;;;;2.33;2.10;;;;;;;;;;2062545;28;20496;-78
2023/04/01 01:57:07;;;;;;;3.10;1.90;;;;;;;;;;2058801;28;20621;-79
2023/04/01 01:58:46;;;;;;;4.40;2.03;;;;;;;;;;2072171;28;20018;-80
2023/04/01 02:00:12;;;;;;;4.03;1.90;;;;;;;;;;2059256;28;20034;-79
2023/04/01 02:01:33;;;;;;;3.03;2.25;;;;;;;;;;2053920;28;20087;-80
2023/04/01 02:02:52;;;;;;;2.58;2.05;;;;;;;;;;2057053;28;20039;-79
2023/04/01 02:04:13;;;;;;;3.30;1.83;;;;;;;;;;2053147;28;20030;-79
2023/04/01 02:05:32;;;;;;;2.22;1.92;;;;;;;;;;2056017;28;20491;-79
2023/04/01 02:07:02;;;;;;;2.30;2.10;;;;;;;;;;2058902;28;20039;-78
2023/04/01 02:08:57;;;;;;;2.53;2.10;;;;;;;;;;2058021;28;20030;-82
2023/04/01 02:10:16;;;;;;;;;;;;;;;;;;2058190;28;20026;-79
2023/04/01 02:11:59;;;;;;;2.47;1.88;;;;;;;;;;2047737;28;19914;-79
2023/04/01 02:13:24;;;;;;;3.90;2.10;;;;;;;;;;2058673;28;20031;-79
2023/04/01 02:15:05;;;;;;;3.20;2.20;;;;;;;;;;2056418;28;20125;-78
2023/04/01 02:16:29;;;;;;;2.85;1.92;;;;;;;;;;2060611;28;20039;-79
2023/04/01 02:17:49;;;;;;;2.38;2.17;;;;;;;;;;2057431;28;20109;-80
2023/04/01 02:19:10;;;;;;;2.38;2.05;;;;;;;;;;2058359;28;20035;-79
2023/04/01 02:20:30;;;;;;;3.67;2.13;;;;;;;;;;2058432;28;20062;-79
2023/04/01 02:21:51;;;;;;;4.35;1.98;;;;;;;;;;2059492;28;20038;-80
2023/04/01 02:23:10;;;;;;;2.70;2.20;;;;;;;;;;2054255;28;20035;-79
2023/04/01 02:24:31;;;;;;;4.18;2.00;;;;;;;;;;2058958;28;20038;-79
2023/04/01 02:25:50;;;;;;;4.03;2.03;;;;;;;;;;2059892;28;20054;-79
2023/04/01 02:27:10;;;;;;;3.15;2.15;;;;;;;;;;2068539;28;20023;-78
2023/04/01 02:28:31;;;;;;;2.28;2.08;;;;;;;;;;2061389;28;20055;-79
2023/04/01 02:29:50;;;;;;;3.05;2.17;;;;;;;;;;2058706;28;20495;-79
2023/04/01 02:31:10;;;;;;;4.07;2.00;;;;;;;;;;2056075;28;20404;-79
2023/04/01 02:32:31;;;;;;;2.88;2.22;;;;;;;;;;2054636;28;20035;-79
2023/04/01 02:33:50;;;;;;;2.08;1.80;;;;;;;;;;2056564;28;20023;-79
2023/04/01 02:35:11;;;;;;;3.67;2.28;;;;;;;;;;2059918;28;20034;-78
2023/04/01 02:36:30;;;;;;;4.13;2.08;;;;;;;;;;2074431;28;20116;-79
2023/04/01 02:37:50;;;;;;;3.17;1.67;;;;;;;;;;2063162;28;20109;-79
2023/04/01 02:39:09;;;;;;;3.97;2.15;;;;;;;;;;2071161;28;20542;-79
2023/04/01 02:40:29;;;;;;;3.50;1.70;;;;;;;;;;2061259;28;20404;-78
2023/04/01 02:41:48;;;;;;;2.10;1.90;;;;;;;;;;2057642;28;20031;-81
2023/04/01 02:43:07;;;;;;;2.08;1.77;;;;;;;;;;2058335;28;20042;-81
2023/04/01 02:44:26;;;;;;;2.30;2.10;;;;;;;;;;2056558;28;20511;-78
2023/04/01 02:45:45;;;;;;;1.90;1.80;;;;;;;;;;2063970;28;20112;-79
2023/04/01 02:47:03;;;;;;;3.17;2.15;;;;;;;;;;2062494;28;20846;-80
2023/04/01 02:48:22;;;;;;;2.95;2.10;;;;;;;;;;2068033;28;20033;-81
2023/04/01 02:49:41;;;;;;;2.25;1.90;;;;;;;;;;2063774;28;20368;-79
2023/04/01 02:51:01;;;;;;;2.83;1.85;;;;;;;;;;2058702;28;20031;-78
2023/04/01 02:52:20;;;;;;;4.13;2.10;;;;;;;;;;2059318;28;20034;-79
2023/04/01 02:53:39;;;;;;;2.78;2.03;;;;;;;;;;2058822;28;20030;-78
2023/04/01 02:54:57;;;;;;;5.65;2.28;;;;;;;;;;2057560;28;20022;-78
2023/04/01 02:56:17;;;;;;;2.85;1.98;;;;;;;;;;2057154;28;20031;-79
2023/04/01 02:57:37;;;;;;;3.13;1.80;;;;;;;;;;2060569;28;20035;-78
2023/04/01 02:59:00;;;;;;;2.38;1.80;;;;;;;;;;2058559;28;20030;-79
2023/04/01 03:00:19;;;;;;;4.55;2.20;;;;;;;;;;2050857;28;20039;-79
2023/04/01 03:01:38;;;;;;;4.03;2.05;;;;;;;;;;2057029;28;20035;-79
2023/04/01 03:02:57;;;;;;;2.35;2.10;;;;;;;;;;2063598;28;20062;-79
2023/04/01 03:04:17;;;;;;;1.92;1.73;;;;;;;;;;2057288;28;20027;-79
2023/04/01 03:05:36;;;;;;;3.47;1.90;;;;;;;;;;2059830;28;20031;-79
2023/04/01 03:06:55;;;;;;;3.58;1.95;;;;;;;;;;2058771;28;20035;-79
2023/04/01 03:08:14;;;;;;;2.67;1.92;;;;;;;;;;2061178;28;20050;-79
2023/04/01 03:09:33;;;;;;;1.95;1.80;;;;;;;;;;2058595;28;20034;-80
2023/04/01 03:10:52;;;;;;;3.25;2.10;;;;;;;;;;2056478;28;20046;-81
2023/04/01 03:12:11;;;;;;;2.33;1.92;;;;;;;;;;2059255;28;20255;-79
2023/04/01 03:13:30;;;;;;;1.75;1.65;;;;;;;;;;2064414;28;20022;-78
2023/04/01 03:14:49;;;;;;;3.65;2.28;;;;;;;;;;2058096;28;20026;-80
2023/04/01 03:16:08;;;;;;;3.00;1.73;;;;;;;;;;2059595;28;20031;-79
2023/04/01 03:17:27;;;;;;;3.72;2.00;;;;;;;;;;2059358;28;20488;-80
2023/04/01 03:18:46;;;;;;;2.65;1.70;;;;;;;;;;2057651;28;20236;-79
2023/04/01 03:20:05;;;;;;;3.83;1.88;;;;;;;;;;2054312;28;20038;-78
2023/04/01 03:21:27;;;;;;;3.70;1.90;;;;;;;;;;2064504;28;20428;-79
2023/04/01 03:22:47;;;;;;;2.78;2.00;;;;;;;;;;2060045;28;20027;-79
2023/04/01 03:24:07;;;;;;;2.05;1.73;;;;;;;;;;2060460;28;20035;-78
2023/04/01 03:25:28;;;;;;;2.75;2.13;;;;;;;;;;2072531;28;20534;-79
2023/04/01 03:26:47;;;;;;;5.22;2.00;;;;;;;;;;2060849;28;20034;-79
2023/04/01 03:28:06;;;;;;;2.30;2.10;;;;;;;;;;2059374;28;20510;-78
2023/04/01 03:29:25;;;;;;;2.25;1.90;;;;;;;;;;2058648;28;20487;-78
2023/04/01 03:30:44;;;;;;;2.20;2.00;;;;;;;;;;2056931;28;20031;-78
2023/04/01 03:32:03;;;;;;;3.53;2.15;;;;;;;;;;2059570;28;20391;-78
2023/04/01 03:33:22;;;;;;;3.03;2.30;;;;;;;;;;2058232;28;20023;-78
2023/04/01 03:34:41;;;;;;;2.75;2.20;;;;;;;;;;2059037;28;20106;-81
2023/04/01 03:36:00;;;;;;;3.67;2.20;;;;;;;;;;2059901;28;20035;-78
2023/04/01 03:37:19;;;;;;;5.38;2.30;;;;;;;;;;2057804;28;20027;-78
2023/04/01 03:38:39;;;;;;;4.72;2.10;;;;;;;;;;2057997;28;20035;-78
2023/04/01 03:39:58;;;;;;;2.28;2.08;;;;;;;;;;2057779;28;20034;-79
2023/04/01 03:41:17;;;;;;;2.13;1.92;;;;;;;;;;2059119;28;20396;-78
2023/04/01 03:42:37;;;;;;;2.50;2.08;;;;;;;;;;2075228;28;20422;-79
2023/04/01 03:43:56;;;;;;;1.92;1.83;;;;;;;;;;2060668;28;20026;-78
2023/04/01 03:45:15;;;;;;;2.33;1.80;;;;;;;;;;2056331;28;20086;-78
2023/04/01 03:46:34;;;;;;;2.15;1.80;;;;;;;;;;2057016;28;20419;-78
2023/04/01 03:47:54;;;;;;;2.40;1.85;;;;;;;;;;2065366;28;20202;-78
2023/04/01 03:49:13;;;;;;;3.40;2.10;;;;;;;;;;2061456;28;20034;-78
2023/04/01 03:50:34;;;;;;;1.88;1.77;;;;;;;;;;2057948;28;20415;-77
2023/04/01 03:51:53;;;;;;;4.40;1.95;;;;;;;;;;2055517;28;20039;-79
2023/04/01 03:53:13;;;;;;;2.28;1.58;;;;;;;;;;2058739;28;20081;-78
2023/04/01 03:54:31;;;;;;;2.03;1.75;;;;;;;;;;2058030;28;20030;-79
2023/04/01 03:55:53;;;;;;;2.63;2.00;;;;;;;;;;2058315;28;20504;-78
2023/04/01 03:57:13;;;;;;;3.60;2.25;;;;;;;;;;2058917;28;20030;-77
2023/04/01 03:58:32;;;;;;;3.10;2.30;;;;;;;;;;2059400;28;20499;-77
2023/04/01 03:59:51;;;;;;;2.05;1.77;;;;;;;;;;2058091;28;20395;-79
2023/04/01 04:01:14;;;;;;;2.88;1.92;;;;;;;;;;2056851;28;20070;-78
2023/04/01 04:02:33;;;;;;;;;;;;;;;;;;2054703;28;20418;-79
2023/04/01 04:03:52;;;;;;;2.10;1.90;;;;;;;;;;2071347;28;20362;-78
2023/04/01 04:05:11;;;;;;;3.65;2.00;;;;;;;;;;2060705;28;20035;-79
2023/04/01 04:06:30;;;;;;;4.00;1.90;;;;;;;;;;2063985;28;20135;-79
2023/04/01 04:07:51;;;;;;;2.83;2.20;;;;;;;;;;2051404;28;20043;-80
2023/04/01 04:09:10;;;;;;;3.85;2.05;;;;;;;;;;2060932;28;20042;-77
2023/04/01 04:10:29;;;;;;;2.50;2.30;;;;;;;;;;2064002;28;20027;-78
2023/04/01 04:11:49;;;;;;;2.25;2.03;;;;;;;;;;2059553;28;20027;-80
2023/04/01 04:13:09;;;;;;;3.05;2.13;;;;;;;;;;2058768;28;20022;-79
2023/04/01 04:14:28;;;;;;;2.05;1.88;;;;;;;;;;2060811;28;20018;-78
2023/04/01 04:15:46;;;;;;;4.03;1.90;;;;;;;;;;2057857;28;20027;-78
2023/04/01 04:17:05;;;;;;;2.35;2.10;;;;;;;;;;2056430;28;20035;-81
2023/04/01 04:18:24;;;;;;;4.63;2.20;;;;;;;;;;2057649;28;20063;-79
2023/04/01 04:19:43;;;;;;;2.88;2.28;;;;;;;;;;2059132;28;20524;-80
2023/04/01 04:21:03;;;;;;;2.53;2.22;;;;;;;;;;2057779;28;20500;-80
2023/04/01 04:22:22;;;;;;;3.00;1.90;;;;;;;;;;2058727;28;20022;-79
2023/04/01 04:23:41;;;;;;;5.22;1.92;;;;;;;;;;2062131;28;20041;-79
2023/04/01 04:25:00;;;;;;;3.17;2.28;;;;;;;;;;2057609;28;20031;-79
2023/04/01 04:26:18;;;;;;;2.60;2.00;;;;;;;;;;2056654;28;20030;-79
2023/04/01 04:27:37;;;;;;;3.58;2.10;;;;;;;;;;2056601;28;20089;-79
2023/04/01 04:28:56;;;;;;;2.63;2.20;;;;;;;;;;2056447;28;20878;-78
2023/04/01 04:30:15;;;;;;;3.35;1.77;;;;;;;;;;2055915;28;20026;-79
2023/04/01 04:31:34;;;;;;;3.60;2.03;;;;;;;;;;2053668;28;20035;-78
2023/04/01 04:32:53;;;;;;;3.08;1.88;;;;;;;;;;2056317;28;20062;-80
2023/04/01 04:34:13;;;;;;;3.30;2.53;;;;;;;;;;2063486;28;20030;-79
2023/04/01 04:35:32;;;;;;;3.30;2.20;;;;;;;;;;2061570;28;20476;-80
2023/04/01 04:36:51;;;;;;;2.35;2.15;;;;;;;;;;2064726;28;20037;-82
2023/04/01 04:38:11;;;;;;;3.75;2.40;;;;;;;;;;2062953;28;20043;-79
2023/04/01 04:39:30;;;;;;;2.53;2.03;;;;;;;;;;2057495;28;20070;-78
2023/04/01 04:40:48;;;;;;;3.10;2.22;;;;;;;;;;2057966;28;20492;-79
2023/04/01 04:42:07;;;;;;;3.10;2.30;;;;;;;;;;2064830;28;20050;-79
2023/04/01 04:43:27;;;;;;;3.17;2.88;;;;;;;;;;2057807;28;20018;-80
2023/04/01 04:44:46;;;;;;;4.10;1.95;;;;;;;;;;2054436;28;20023;-79
2023/04/01 04:46:08;;;;;;;2.90;2.25;;;;;;;;;;2063446;28;20034;-78
2023/04/01 04:47:27;;;;;;;3.22;2.30;;;;;;;;;;2059411;28;20026;-80
2023/04/01 04:48:46;;;;;;;3.40;1.83;;;;;;;;;;2053112;28;20134;-80
2023/04/01 04:50:06;;;;;;;3.38;1.92;;;;;;;;;;2057923;28;20023;-81
2023/04/01 04:51:25;;;;;;;4.05;2.13;;;;;;;;;;2059564;28;20023;-81
2023/04/01 04:52:44;;;;;;;2.92;1.98;;;;;;;;;;2056954;28;20105;-80
2023/04/01 04:54:04;;;;;;;3.58;1.95;;;;;;;;;;2052342;28;20031;-78
2023/04/01 04:55:23;;;;;;;6.85;2.50;;;;;;;;;;2057583;28;20027;-78
2023/04/01 04:56:42;;;;;;;1.90;1.77;;;;;;;;;;2057992;28;20508;-83
2023/04/01 04:58:01;;;;;;;5.55;2.50;;;;;;;;;;2058795;28;20034;-79
2023/04/01 04:59:20;;;;;;;4.43;2.40;;;;;;;;;;2071911;28;20041;-81
2023/04/01 05:00:39;;;;;;;2.42;2.22;;;;;;;;;;2060207;28;20109;-81
2023/04/01 05:01:58;;;;;;;3.33;2.38;;;;;;;;;;2060139;28;20022;-79
2023/04/01 05:03:17;;;;;;;4.18;2.38;;;;;;;;;;2059989;28;20027;-80
2023/04/01 05:04:36;;;;;;;4.57;2.22;;;;;;;;;;2055361;28;20035;-81
2023/04/01 05:05:55;;;;;;;4.38;2.60;;;;;;;;;;2062660;28;20030;-79
2023/04/01 05:07:14;;;;;;;2.40;2.20;;;;;;;;;;2058919;28;20411;-79
2023/04/01 05:08:33;;;;;;;4.25;1.95;;;;;;;;;;2057624;28;20043;-80
2023/04/01 05:09:52;;;;;;;4.47;2.00;;;;;;;;;;2056834;28;20397;-81
2023/04/01 05:11:12;;;;;;;4.20;2.20;;;;;;;;;;2059088;28;20607;-80
2023/04/01 05:12:35;;;;;;;3.40;2.08;;;;;;;;;;2059104;28;20019;-80
2023/04/01 05:13:54;;;;;;;;;;;;;;;;;;2058520;28;20048;-80
2023/04/01 05:15:14;;;;;;;3.05;1.92;;;;;;;;;;2054624;28;19910;-78
2023/04/01 05:16:33;;;;;;;2.90;2.28;;;;;;;;;;2058660;28;20035;-79
2023/04/01 05:17:53;;;;;;;2.53;2.33;;;;;;;;;;2057475;28;20019;-79
2023/04/01 05:19:11;;;;;;;2.85;2.10;;;;;;;;;;2057004;28;20062;-79
2023/04/01 05:20:30;;;;;;;4.53;2.10;;;;;;;;;;2068251;28;20038;-79
2023/04/01 05:21:49;;;;;;;2.15;1.90;;;;;;;;;;2059442;28;20105;-80
2023/04/01 05:23:09;;;;;;;3.58;2.05;;;;;;;;;;2058046;28;20028;-79
2023/04/01 05:24:27;;;;;;;5.30;2.05;;;;;;;;;;2053984;28;20036;-80
2023/04/01 05:25:47;;;;;;;5.65;2.17;;;;;;;;;;2064333;28;20038;-79
2023/04/01 05:27:05;;;;;;;3.55;2.30;;;;;;;;;;2059049;28;20030;-79
2023/04/01 05:28:25;;;;;;;3.53;2.08;;;;;;;;;;2057310;28;20066;-81
2023/04/01 05:29:44;;;;;;;2.75;2.10;;;;;;;;;;2064821;28;20022;-81
2023/04/01 05:31:03;;;;;;;2.22;2.03;;;;;;;;;;2068759;28;20039;-80
2023/04/01 05:32:23;;;;;;;5.20;2.42;;;;;;;;;;2065705;28;20015;-82
2023/04/01 05:33:41;;;;;;;2.58;1.90;;;;;;;;;;2073323;28;21167;-81
2023/04/01 05:35:01;;;;;;;6.82;2.30;;;;;;;;;;2072635;28;20014;-80
2023/04/01 05:36:20;;;;;;;3.60;2.33;;;;;;;;;;2065753;28;20585;-82
2023/04/01 05:37:39;;;;;;;2.60;2.10;;;;;;;;;;2067652;28;20090;-80
2023/04/01 05:38:58;;;;;;;3.30;1.95;;;;;;;;;;2067248;28;20023;-80
2023/04/01 05:40:17;;;;;;;5.38;2.20;;;;;;;;;;2062967;28;20019;-80
2023/04/01 05:41:37;;;;;;;3.75;2.22;;;;;;;;;;2060599;28;20121;-80
2023/04/01 05:42:57;;;;;;;3.35;2.13;;;;;;;;;;2062322;28;20054;-79
2023/04/01 05:44:16;;;;;;;2.17;1.95;;;;;;;;;;2060314;28;20034;-79
2023/04/01 05:45:35;;;;;;;1.95;1.83;;;;;;;;;;2060021;28;20035;-80
2023/04/01 05:46:54;;;;;;;3.35;2.35;;;;;;;;;;2056940;28;20043;-80
2023/04/01 05:48:13;;;;;;;2.35;1.90;;;;;;;;;;2059765;28;20507;-79
2023/04/01 05:49:33;;;;;;;3.65;2.00;;;;;;;;;;2057562;28;20073;-79
2023/04/01 05:50:52;;;;;;;2.25;2.05;;;;;;;;;;2056278;28;20054;-81
2023/04/01 05:52:11;;;;;;;3.60;1.77;;;;;;;;;;2055732;28;20027;-80
2023/04/01 05:53:30;;;;;;;3.58;1.73;;;;;;;;;;2054080;28;20026;-80
2023/04/01 05:54:50;;;;;;;2.22;1.80;;;;;;;;;;2055886;28;20126;-79
2023/04/01 05:56:09;;;;;;;2.50;2.05;;;;;;;;;;2058032;28;20039;-81
2023/04/01 05:57:28;;;;;;;3.17;1.63;;;;;;;;;;2059366;28;20043;-80
2023/04/01 05:58:50;;;;;;;3.88;1.90;;;;;;;;;;2059109;28;20038;-80
2023/04/01 06:00:09;;;;;;;5.20;2.08;;;;;;;;;;2059986;28;20042;-80
2023/04/01 06:01:28;;;;;;;2.17;1.50;;;;;;;;;;2059595;28;20027;-80
2023/04/01 06:02:48;;;;;;;5.95;1.88;;;;;;;;;;2055298;28;20043;-80
2023/04/01 06:04:09;;;;;;;3.60;2.22;;;;;;;;;;2052953;28;20488;-81
2023/04/01 06:05:29;;;;;;;6.57;3.28;;;;;;;;;;2053493;28;20066;-80
2023/04/01 06:06:49;;;;;;;4.07;2.47;;;;;;;;;;2053393;28;20035;-80
2023/04/01 06:08:15;;;;;;;3.75;2.50;;;;;;;;;;2056563;28;20034;-80
2023/04/01 06:09:34;;;;;;;3.75;2.50;;;;;;;;;;2056665;28;20618;-80
2023/04/01 06:10:59;;;;;;;3.63;2.20;;;;;;;;;;2060912;28;20388;-79
2023/04/01 06:12:33;;;;;;;4.90;2.40;;;;;;;;;;2059234;28;20026;-79
2023/04/01 06:14:11;;;;;;;2.42;1.83;;;;;;;;;;2061413;28;20031;-80
2023/04/01 06:15:31;;;;;;;3.28;1.73;;;;;;;;;;2060159;28;20055;-81
2023/04/01 06:16:50;;;;;;;2.47;1.75;;;;;;;;;;2059233;28;20388;-82
2023/04/01 06:18:27;;;;;;;3.78;1.75;;;;;;;;;;2062122;28;20015;-80
2023/04/01 06:20:00;;;;;;;4.00;1.90;;;;;;;;;;2056700;28;20027;-81
2023/04/01 06:21:28;;;;;;;5.10;1.90;;;;;;;;;;2073670;28;20104;-81
2023/04/01 06:22:54;;;;;;;1.95;1.48;;;;;;;;;;2062648;28;20023;-81
2023/04/01 06:24:16;;;;;;;2.55;1.70;;;;;;;;;;2063023;28;20022;-81
2023/04/01 06:25:53;;;;;;;4.18;1.40;;;;;;;;;;2060318;28;20085;-80
2023/04/01 06:27:31;;;;;;;2.33;1.63;;;;;;;;;;2068827;28;20022;-81
2023/04/01 06:28:50;;;;;;;2.97;1.50;;;;;;;;;;2059882;28;20038;-82
2023/04/01 06:30:28;;;;;;;2.15;1.52;;;;;;;;;;2059727;28;20046;-80
2023/04/01 06:31:47;;;;;;;2.08;1.80;;;;;;;;;;2076486;28;20650;-79
2023/04/01 06:33:25;;;;;;;3.10;1.50;;;;;;;;;;2064854;28;20461;-80
2023/04/01 06:34:50;;;;;;;4.88;1.85;;;;;;;;;;2058370;28;20027;-81
2023/04/01 06:36:28;;;;;;;1.70;1.20;;;;;;;;;;2063168;28;20106;-80
2023/04/01 06:37:50;;;;;;;2.13;1.58;;;;;;;;;;2068890;28;20038;-79
2023/04/01 06:39:29;;;;;;;2.45;1.48;;;;;;;;;;2062454;28;20026;-84
2023/04/01 06:41:11;;;;;;;5.07;1.20;;;;;;;;;;2060657;28;20031;-82
2023/04/01 06:42:49;;;;;;;1.20;1.05;;;;;;;;;;2061814;28;20424;-80
2023/04/01 06:44:11;;;;;;;1.98;1.40;;;;;;;;;;2060383;28;20022;-80
2023/04/01 06:45:44;;;;;;;1.55;1.17;;;;;;;;;;2059357;28;20027;-81
2023/04/01 06:47:03;;;;;;;1.10;1.00;;;;;;;;;;2058810;28;20070;-80
2023/04/01 06:48:45;;;;;;;3.30;1.30;;;;;;;;;;2059912;28;20034;-78
2023/04/01 06:50:25;;;;;;;2.67;1.17;;;;;;;;;;2062685;28;20408;-78
2023/04/01 06:51:59;;;;;;;2.72;1.27;;;;;;;;;;2065151;28;20473;-79
2023/04/01 06:53:18;;;;;;;2.80;1.20;;;;;;;;;;2068651;28;20511;-79
2023/04/01 06:54:38;;;;;;;2.13;1.20;;;;;;;;;;2068707;28;20061;-79
2023/04/01 06:56:00;;;;;;;2.67;1.40;;;;;;;;;;2061506;28;20030;-80
2023/04/01 06:57:30;;;;;;;2.05;1.52;;;;;;;;;;2066765;28;20031;-79
2023/04/01 06:58:53;;;;;;;2.63;0.90;;;;;;;;;;2054759;28;20057;-79
2023/04/01 07:00:38;;;;;;;4.05;1.20;;;;;;;;;;2057093;28;20496;-79
2023/04/01 07:02:20;;;;;;;2.65;1.05;;;;;;;;;;2061073;28;20152;-80
2023/04/01 07:03:57;;;;;;;3.33;0.90;;;;;;;;;;2059605;28;20034;-79
2023/04/01 07:05:16;;;;;;;2.88;1.17;;;;;;;;;;2060271;28;20034;-80
2023/04/01 07:06:38;;;;;;;2.03;1.10;;;;;;;;;;2064856;28;20027;-81
2023/04/01 07:08:02;;;;;;;0.93;0.93;;;;;;;;;;2062425;28;20093;-79
2023/04/01 07:09:32;;;;;;;5.25;1.13;;;;;;;;;;2057469;28;20034;-80
2023/04/01 07:11:01;;;;;;;2.10;1.20;;;;;;;;;;2058942;28;20018;-81
2023/04/01 07:12:29;;;;;;;4.50;1.17;;;;;;;;;;2059693;28;20468;-81
2023/04/01 07:13:48;;;;;;;2.85;1.10;;;;;;;;;;2059792;28;20038;-79
2023/04/01 07:15:28;;;;;;;7.07;1.25;;;;;;;;;;2057882;28;20023;-80
2023/04/01 07:17:06;;;;;;;1.25;1.02;;;;;;;;;;2060164;28;20035;-81
2023/04/01 07:18:45;;;;;;;6.30;1.15;;;;;;;;;;2058280;28;20030;-79
2023/04/01 07:20:13;;;;;;;3.78;1.33;;;;;;;;;;2065219;28;20104;-80
2023/04/01 07:21:36;;;;;;;8.65;1.40;;;;;;;;;;2062075;28;20038;-77
2023/04/01 07:22:56;;;;;;;;;;;;;;;;;;2067453;28;20483;-77
2023/04/01 07:24:17;;;;;;;4.50;1.48;;;;;;;;;;2075945;28;19909;-77
2023/04/01 07:25:39;;;;;;;6.28;1.05;;;;;;;;;;2064718;28;20149;-77
2023/04/01 07:26:58;;;;;;;4.15;1.15;;;;;;;;;;2063349;28;20443;-76
2023/04/01 07:28:17;;;;;;;3.70;1.40;;;;;;;;;;2061829;28;20487;-77
2023/04/01 07:29:36;;;;;;;8.82;1.40;;;;;;;;;;2058759;28;20022;-76
2023/04/01 07:30:58;;;;;;;3.20;1.08;;;;;;;;;;2058156;28;20452;-76
2023/04/01 07:32:27;;;;;;;2.55;1.30;;;;;;;;;;2058878;28;20094;-78
2023/04/01 07:33:52;;;;;;;3.03;0.98;;;;;;;;;;2057937;28;20023;-76
2023/04/01 07:35:11;;;;;;;5.85;0.90;;;;;;;;;;2056784;28;20023;-78
2023/04/01 07:36:34;;;;;;;5.80;1.17;;;;;;;;;;2055341;28;20542;-76
2023/04/01 07:38:05;;;;;;;5.55;1.25;;;;;;;;;;2071649;28;20025;-78
2023/04/01 07:39:38;;;;;;;5.25;1.05;;;;;;;;;;2065514;28;20023;-76
2023/04/01 07:40:57;;;;;;;2.47;1.10;;;;;;;;;;2060047;28;20031;-77
2023/04/01 07:42:19;;;;;;;2.70;0.93;;;;;;;;;;2057483;28;20034;-77
2023/04/01 07:43:41;;;;;;;4.15;1.73;;;;;;;;;;2058624;28;20038;-77
2023/04/01 07:45:17;;;;;;;7.05;0.98;;;;;;;;;;2058053;28;20030;-79
2023/04/01 07:46:36;;;;;;;11.48;2.13;;;;;;;;;;2061513;28;20462;-78
2023/04/01 07:48:13;;;;;;;2.60;1.55;;;;;;;;;;2060497;28;20035;-78
2023/04/01 07:49:39;;;;;;;6.15;1.30;;;;;;;;;;2056844;28;20043;-76
2023/04/01 07:51:01;;;;;;;6.85;1.10;;;;;;;;;;2063268;28;20022;-77
2023/04/01 07:52:23;;;;;;;5.25;1.35;;;;;;;;;;2062614;28;20026;-78
2023/04/01 07:53:48;;;;;;;2.88;1.13;;;;;;;;;;2063314;28;20042;-80
2023/04/01 07:55:10;;;;;;;6.68;1.55;;;;;;;;;;2066349;28;20018;-79
2023/04/01 07:56:40;;;;;;;3.83;1.60;;;;;;;;;;2065302;28;20257;-79
2023/04/01 07:58:08;;;;;;;4.13;1.02;;;;;;;;;;2060047;28;20035;-79
2023/04/01 07:59:47;;;;;;;6.80;1.33;;;;;;;;;;2059310;28;20022;-80
2023/04/01 08:01:06;;;;;;;3.92;1.20;;;;;;;;;;2057267;28;20031;-79
2023/04/01 08:02:24;;;;;;;3.40;1.08;;;;;;;;;;2058195;28;20031;-80
2023/04/01 08:03:43;;;;;;;2.17;0.90;;;;;;;;;;2057937;28;20022;-80
2023/04/01 08:05:17;;;;;;;3.22;1.10;;;;;;;;;;2059841;28;20676;-80
2023/04/01 08:06:43;;;;;;;4.03;1.08;;;;;;;;;;2064975;28;20030;-80
2023/04/01 08:08:08;;;;;;;5.75;1.48;;;;;;;;;;2059305;28;20054;-79
2023/04/01 08:09:42;;;;;;;3.28;1.33;;;;;;;;;;2058444;28;20034;-80
2023/04/01 08:11:08;;;;;;;8.35;1.33;;;;;;;;;;2064457;28;20117;-80
2023/04/01 08:12:41;;;;;;;4.18;1.33;;;;;;;;;;2056401;28;20031;-80
2023/04/01 08:14:00;;;;;;;;;;;;;;;;;;2074732;28;20379;-80
2023/04/01 08:15:35;;;;;;;5.60;1.30;;;;;;;;;;2061243;28;20368;-80